sensor_id;sensor_type;location;lat;lon;timestamp;pressure;altitude;pressure_sealevel;temperature;humidity
43217;BME280;60511;42.686;23.300;2023-05-11T00:01:43;94858.16;;;23.02;29.74
43217;BME280;60511;42.686;23.300;2023-05-11T00:03:43;94849.41;;;22.93;29.99
43217;BME280;60511;42.686;23.300;2023-05-11T00:05:47;94872.09;;;23.04;30.13
43217;BME280;60511;42.686;23.300;2023-05-11T00:07:48;94861.09;;;22.97;30.06
43217;BME280;60511;42.686;23.300;2023-05-11T00:09:49;94875.69;;;23.08;29.71
43217;BME280;60511;42.686;23.300;2023-05-11T00:11:51;94869.50;;;23.08;29.81
43217;BME280;60511;42.686;23.300;2023-05-11T00:13:51;94866.56;;;23.00;29.90
43217;BME280;60511;42.686;23.300;2023-05-11T00:15:52;94857.13;;;22.94;29.77
43217;BME280;60511;42.686;23.300;2023-05-11T00:17:52;94869.06;;;23.05;29.80
43217;BME280;60511;42.686;23.300;2023-05-11T00:19:52;94847.28;;;22.86;29.93
43217;BME280;60511;42.686;23.300;2023-05-11T00:21:53;94859.06;;;22.94;29.97
43217;BME280;60511;42.686;23.300;2023-05-11T00:23:53;94823.41;;;22.72;29.95
43217;BME280;60511;42.686;23.300;2023-05-11T00:25:54;94866.13;;;22.98;29.55
43217;BME280;60511;42.686;23.300;2023-05-11T00:27:54;94885.38;;;23.09;29.65
43217;BME280;60511;42.686;23.300;2023-05-11T00:29:54;94884.56;;;23.09;29.65
43217;BME280;60511;42.686;23.300;2023-05-11T00:31:55;94876.91;;;23.11;29.59
43217;BME280;60511;42.686;23.300;2023-05-11T00:33:55;94879.53;;;23.07;29.73
43217;BME280;60511;42.686;23.300;2023-05-11T00:35:56;94832.38;;;22.76;29.81
43217;BME280;60511;42.686;23.300;2023-05-11T00:37:56;94879.16;;;23.09;29.87
43217;BME280;60511;42.686;23.300;2023-05-11T00:39:57;94883.44;;;23.10;29.84
43217;BME280;60511;42.686;23.300;2023-05-11T00:41:59;94896.16;;;23.09;29.91
43217;BME280;60511;42.686;23.300;2023-05-11T00:43:59;94886.47;;;23.08;29.71
43217;BME280;60511;42.686;23.300;2023-05-11T00:46:01;94888.84;;;23.10;29.77
43217;BME280;60511;42.686;23.300;2023-05-11T00:48:02;94900.09;;;23.12;29.46
43217;BME280;60511;42.686;23.300;2023-05-11T00:50:03;94865.25;;;22.94;29.75
43217;BME280;60511;42.686;23.300;2023-05-11T00:52:04;94873.09;;;22.99;29.79
43217;BME280;60511;42.686;23.300;2023-05-11T00:54:04;94828.13;;;22.63;29.54
43217;BME280;60511;42.686;23.300;2023-05-11T00:56:08;94884.56;;;23.09;29.87
43217;BME280;60511;42.686;23.300;2023-05-11T00:58:08;94804.22;;;22.49;29.64
43217;BME280;60511;42.686;23.300;2023-05-11T01:00:09;94874.13;;;22.95;29.72
43217;BME280;60511;42.686;23.300;2023-05-11T01:02:10;94891.78;;;23.04;29.53
43217;BME280;60511;42.686;23.300;2023-05-11T01:04:11;94873.34;;;22.94;29.53
43217;BME280;60511;42.686;23.300;2023-05-11T01:06:26;94888.72;;;23.06;29.82
43217;BME280;60511;42.686;23.300;2023-05-11T01:08:44;94885.25;;;23.05;29.54
43217;BME280;60511;42.686;23.300;2023-05-11T01:13:35;94886.16;;;22.97;29.63
43217;BME280;60511;42.686;23.300;2023-05-11T01:15:49;94894.47;;;23.04;29.83
43217;BME280;60511;42.686;23.300;2023-05-11T01:17:53;94890.84;;;23.00;29.75
43217;BME280;60511;42.686;23.300;2023-05-11T01:19:59;94886.94;;;22.98;29.69
43217;BME280;60511;42.686;23.300;2023-05-11T01:22:14;94888.63;;;23.02;29.86
43217;BME280;60511;42.686;23.300;2023-05-11T01:28:57;94896.06;;;23.05;29.67
43217;BME280;60511;42.686;23.300;2023-05-11T01:31:11;94896.25;;;23.00;30.00
43217;BME280;60511;42.686;23.300;2023-05-11T01:33:13;94895.47;;;23.00;30.05
43217;BME280;60511;42.686;23.300;2023-05-11T01:35:17;94873.59;;;22.89;29.58
43217;BME280;60511;42.686;23.300;2023-05-11T01:37:21;94887.97;;;22.93;29.91
43217;BME280;60511;42.686;23.300;2023-05-11T01:39:31;94859.44;;;22.80;30.24
43217;BME280;60511;42.686;23.300;2023-05-11T01:41:36;94890.22;;;23.03;29.97
43217;BME280;60511;42.686;23.300;2023-05-11T01:43:39;94869.41;;;22.92;30.38
43217;BME280;60511;42.686;23.300;2023-05-11T01:45:44;94838.88;;;22.75;30.35
43217;BME280;60511;42.686;23.300;2023-05-11T01:47:47;94864.78;;;22.92;30.17
43217;BME280;60511;42.686;23.300;2023-05-11T01:49:49;94875.81;;;22.99;30.06
43217;BME280;60511;42.686;23.300;2023-05-11T01:51:52;94901.44;;;23.05;29.97
43217;BME280;60511;42.686;23.300;2023-05-11T01:53:55;94901.56;;;23.09;29.81
43217;BME280;60511;42.686;23.300;2023-05-11T01:55:57;94876.41;;;22.93;29.94
43217;BME280;60511;42.686;23.300;2023-05-11T01:57:59;94826.13;;;22.60;30.46
43217;BME280;60511;42.686;23.300;2023-05-11T02:00:00;94890.06;;;23.00;29.99
43217;BME280;60511;42.686;23.300;2023-05-11T02:02:02;94877.50;;;22.92;30.22
43217;BME280;60511;42.686;23.300;2023-05-11T02:04:03;94844.97;;;22.72;30.33
43217;BME280;60511;42.686;23.300;2023-05-11T02:06:05;94884.25;;;22.98;29.99
43217;BME280;60511;42.686;23.300;2023-05-11T02:08:07;94877.06;;;23.02;29.88
43217;BME280;60511;42.686;23.300;2023-05-11T02:10:09;94889.19;;;23.08;29.65
43217;BME280;60511;42.686;23.300;2023-05-11T02:12:12;94876.72;;;22.91;29.99
43217;BME280;60511;42.686;23.300;2023-05-11T02:14:14;94850.13;;;22.77;29.51
43217;BME280;60511;42.686;23.300;2023-05-11T02:16:17;94853.03;;;22.84;29.89
43217;BME280;60511;42.686;23.300;2023-05-11T02:18:23;94858.78;;;22.83;29.56
43217;BME280;60511;42.686;23.300;2023-05-11T02:20:24;94861.66;;;22.90;29.55
43217;BME280;60511;42.686;23.300;2023-05-11T02:22:25;94878.63;;;23.03;29.60
43217;BME280;60511;42.686;23.300;2023-05-11T02:24:29;94884.47;;;23.05;29.60
43217;BME280;60511;42.686;23.300;2023-05-11T02:26:30;94887.63;;;23.07;29.83
43217;BME280;60511;42.686;23.300;2023-05-11T02:28:30;94822.25;;;22.73;29.39
43217;BME280;60511;42.686;23.300;2023-05-11T02:30:31;94784.38;;;22.41;29.77
43217;BME280;60511;42.686;23.300;2023-05-11T02:32:34;94883.44;;;23.10;29.95
43217;BME280;60511;42.686;23.300;2023-05-11T02:34:41;94878.38;;;23.08;29.71
43217;BME280;60511;42.686;23.300;2023-05-11T02:36:42;94793.38;;;22.45;29.67
43217;BME280;60511;42.686;23.300;2023-05-11T02:38:45;94832.72;;;22.75;29.54
43217;BME280;60511;42.686;23.300;2023-05-11T02:40:49;94884.91;;;23.07;29.53
43217;BME280;60511;42.686;23.300;2023-05-11T02:42:55;94875.47;;;23.01;29.42
43217;BME280;60511;42.686;23.300;2023-05-11T02:45:07;94795.94;;;22.42;29.63
43217;BME280;60511;42.686;23.300;2023-05-11T02:47:11;94866.59;;;22.88;29.71
43217;BME280;60511;42.686;23.300;2023-05-11T02:49:13;94859.22;;;22.85;29.82
43217;BME280;60511;42.686;23.300;2023-05-11T02:51:16;94836.97;;;22.76;29.47
43217;BME280;60511;42.686;23.300;2023-05-11T02:53:18;94852.66;;;22.86;29.60
43217;BME280;60511;42.686;23.300;2023-05-11T02:55:21;94822.09;;;22.54;29.54
43217;BME280;60511;42.686;23.300;2023-05-11T02:57:22;94858.44;;;22.84;29.63
43217;BME280;60511;42.686;23.300;2023-05-11T02:59:23;94860.75;;;22.86;29.41
43217;BME280;60511;42.686;23.300;2023-05-11T03:01:25;94847.53;;;22.81;29.35
43217;BME280;60511;42.686;23.300;2023-05-11T03:03:26;94889.63;;;22.98;29.33
43217;BME280;60511;42.686;23.300;2023-05-11T03:05:27;94888.84;;;22.97;29.37
43217;BME280;60511;42.686;23.300;2023-05-11T03:07:27;94853.81;;;22.85;29.67
43217;BME280;60511;42.686;23.300;2023-05-11T03:09:28;94854.47;;;22.82;29.46
43217;BME280;60511;42.686;23.300;2023-05-11T03:11:29;94875.41;;;22.85;29.41
43217;BME280;60511;42.686;23.300;2023-05-11T03:13:30;94859.53;;;22.83;29.62
43217;BME280;60511;42.686;23.300;2023-05-11T03:15:31;94877.94;;;22.94;29.84
43217;BME280;60511;42.686;23.300;2023-05-11T03:17:33;94866.97;;;22.86;29.39
43217;BME280;60511;42.686;23.300;2023-05-11T03:19:35;94889.44;;;23.03;29.65
43217;BME280;60511;42.686;23.300;2023-05-11T03:21:38;94872.78;;;23.01;29.81
43217;BME280;60511;42.686;23.300;2023-05-11T03:23:40;94876.47;;;22.96;29.46
43217;BME280;60511;42.686;23.300;2023-05-11T03:25:41;94873.34;;;22.94;29.66
43217;BME280;60511;42.686;23.300;2023-05-11T03:27:43;94856.75;;;22.80;29.79
43217;BME280;60511;42.686;23.300;2023-05-11T03:29:45;94868.97;;;22.90;29.46
43217;BME280;60511;42.686;23.300;2023-05-11T03:31:48;94890.66;;;23.05;29.50
43217;BME280;60511;42.686;23.300;2023-05-11T03:33:48;94878.84;;;22.98;29.63
43217;BME280;60511;42.686;23.300;2023-05-11T03:35:50;94892.56;;;23.05;29.18
43217;BME280;60511;42.686;23.300;2023-05-11T03:37:51;94896.06;;;23.05;29.51
43217;BME280;60511;42.686;23.300;2023-05-11T03:39:56;94874.38;;;22.90;29.39
43217;BME280;60511;42.686;23.300;2023-05-11T03:41:58;94900.22;;;23.03;29.61
43217;BME280;60511;42.686;23.300;2023-05-11T03:44:02;94881.34;;;22.91;29.68
43217;BME280;60511;42.686;23.300;2023-05-11T03:46:05;94886.75;;;23.03;29.55
43217;BME280;60511;42.686;23.300;2023-05-11T03:48:07;94887.50;;;23.03;29.60
43217;BME280;60511;42.686;23.300;2023-05-11T03:50:08;94878.41;;;22.96;29.75
43217;BME280;60511;42.686;23.300;2023-05-11T03:52:10;94896.38;;;23.04;29.81
43217;BME280;60511;42.686;23.300;2023-05-11T03:54:11;94870.78;;;22.85;29.42
43217;BME280;60511;42.686;23.300;2023-05-11T03:56:12;94896.50;;;23.08;29.72
43217;BME280;60511;42.686;23.300;2023-05-11T03:58:12;94898.84;;;23.09;29.29
43217;BME280;60511;42.686;23.300;2023-05-11T04:00:13;94896.84;;;23.06;29.30
43217;BME280;60511;42.686;23.300;2023-05-11T04:02:14;94863.72;;;22.81;29.12
43217;BME280;60511;42.686;23.300;2023-05-11T04:04:15;94901.13;;;23.07;29.12
43217;BME280;60511;42.686;23.300;2023-05-11T04:06:16;94891.00;;;23.04;29.26
43217;BME280;60511;42.686;23.300;2023-05-11T04:08:18;94895.63;;;23.03;29.46
43217;BME280;60511;42.686;23.300;2023-05-11T04:10:18;94907.41;;;23.11;29.08
43217;BME280;60511;42.686;23.300;2023-05-11T04:12:18;94893.56;;;23.00;29.44
43217;BME280;60511;42.686;23.300;2023-05-11T04:14:19;94903.72;;;23.03;29.43
43217;BME280;60511;42.686;23.300;2023-05-11T04:16:22;94917.22;;;23.03;29.20
43217;BME280;60511;42.686;23.300;2023-05-11T04:18:22;94900.09;;;22.99;29.10
43217;BME280;60511;42.686;23.300;2023-05-11T04:20:23;94905.97;;;23.01;29.02
43217;BME280;60511;42.686;23.300;2023-05-11T04:22:23;94909.09;;;23.03;29.35
43217;BME280;60511;42.686;23.300;2023-05-11T04:24:23;94915.06;;;22.97;29.25
43217;BME280;60511;42.686;23.300;2023-05-11T04:26:24;94908.34;;;23.03;29.63
43217;BME280;60511;42.686;23.300;2023-05-11T04:28:25;94897.31;;;22.83;29.80
43217;BME280;60511;42.686;23.300;2023-05-11T04:30:27;94913.03;;;22.94;29.52
43217;BME280;60511;42.686;23.300;2023-05-11T04:32:27;94918.44;;;23.06;29.41
43217;BME280;60511;42.686;23.300;2023-05-11T04:34:29;94909.75;;;23.00;29.20
43217;BME280;60511;42.686;23.300;2023-05-11T04:36:29;94901.69;;;22.88;29.27
43217;BME280;60511;42.686;23.300;2023-05-11T04:38:30;94889.69;;;22.85;29.26
43217;BME280;60511;42.686;23.300;2023-05-11T04:40:30;94910.91;;;22.99;29.01
43217;BME280;60511;42.686;23.300;2023-05-11T04:42:31;94930.81;;;23.07;29.19
43217;BME280;60511;42.686;23.300;2023-05-11T04:44:31;94890.13;;;22.87;29.00
43217;BME280;60511;42.686;23.300;2023-05-11T04:46:31;94908.09;;;22.96;29.02
43217;BME280;60511;42.686;23.300;2023-05-11T04:48:32;94924.03;;;23.13;28.98
43217;BME280;60511;42.686;23.300;2023-05-11T04:50:32;94873.75;;;22.80;28.88
43217;BME280;60511;42.686;23.300;2023-05-11T04:52:33;94925.25;;;23.16;29.21
43217;BME280;60511;42.686;23.300;2023-05-11T04:54:33;94909.75;;;23.00;28.75
43217;BME280;60511;42.686;23.300;2023-05-11T04:56:33;94915.50;;;23.11;28.98
43217;BME280;60511;42.686;23.300;2023-05-11T04:58:39;94925.16;;;23.12;28.94
43217;BME280;60511;42.686;23.300;2023-05-11T05:00:40;94921.25;;;23.10;29.08
43217;BME280;60511;42.686;23.300;2023-05-11T05:02:40;94941.66;;;23.23;28.97
43217;BME280;60511;42.686;23.300;2023-05-11T05:04:40;94930.84;;;23.23;29.03
43217;BME280;60511;42.686;23.300;2023-05-11T05:06:41;94922.47;;;23.12;28.83
43217;BME280;60511;42.686;23.300;2023-05-11T05:08:41;94940.53;;;23.24;29.13
43217;BME280;60511;42.686;23.300;2023-05-11T05:10:42;94941.75;;;23.26;29.23
43217;BME280;60511;42.686;23.300;2023-05-11T05:12:42;94910.66;;;23.04;29.04
43217;BME280;60511;42.686;23.300;2023-05-11T05:14:42;94946.81;;;23.28;29.10
43217;BME280;60511;42.686;23.300;2023-05-11T05:16:43;94937.56;;;23.29;28.95
43217;BME280;60511;42.686;23.300;2023-05-11T05:18:43;94923.25;;;23.13;28.89
43217;BME280;60511;42.686;23.300;2023-05-11T05:20:44;94918.00;;;23.04;29.06
43217;BME280;60511;42.686;23.300;2023-05-11T05:22:45;94955.38;;;23.30;28.91
43217;BME280;60511;42.686;23.300;2023-05-11T05:24:46;94931.00;;;23.14;28.90
43217;BME280;60511;42.686;23.300;2023-05-11T05:26:46;94948.38;;;23.29;28.87
43217;BME280;60511;42.686;23.300;2023-05-11T05:28:46;94927.53;;;23.14;29.18
43217;BME280;60511;42.686;23.300;2023-05-11T05:30:47;94938.50;;;23.21;28.90
43217;BME280;60511;42.686;23.300;2023-05-11T05:32:47;94951.06;;;23.29;28.80
43217;BME280;60511;42.686;23.300;2023-05-11T05:34:48;94908.66;;;23.01;28.95
43217;BME280;60511;42.686;23.300;2023-05-11T05:36:48;94932.47;;;23.12;28.92
43217;BME280;60511;42.686;23.300;2023-05-11T05:38:48;94937.53;;;23.13;28.77
43217;BME280;60511;42.686;23.300;2023-05-11T05:40:49;94961.53;;;23.31;28.98
43217;BME280;60511;42.686;23.300;2023-05-11T05:42:49;94943.47;;;23.19;28.94
43217;BME280;60511;42.686;23.300;2023-05-11T05:44:50;94946.28;;;23.22;28.94
43217;BME280;60511;42.686;23.300;2023-05-11T05:46:50;94786.56;;;22.11;28.81
43217;BME280;60511;42.686;23.300;2023-05-11T05:48:51;94958.16;;;23.34;28.87
43217;BME280;60511;42.686;23.300;2023-05-11T05:50:51;94963.22;;;23.35;28.99
43217;BME280;60511;42.686;23.300;2023-05-11T05:52:51;94960.50;;;23.35;28.96
43217;BME280;60511;42.686;23.300;2023-05-11T05:54:52;94968.59;;;23.35;28.95
43217;BME280;60511;42.686;23.300;2023-05-11T05:56:52;94973.56;;;23.33;28.80
43217;BME280;60511;42.686;23.300;2023-05-11T05:58:52;94976.28;;;23.33;28.87
43217;BME280;60511;42.686;23.300;2023-05-11T06:00:53;94974.00;;;23.35;28.89
43217;BME280;60511;42.686;23.300;2023-05-11T06:02:53;94965.91;;;23.35;28.73
43217;BME280;60511;42.686;23.300;2023-05-11T06:04:54;94949.84;;;23.26;29.09
43217;BME280;60511;42.686;23.300;2023-05-11T06:06:55;94965.03;;;23.31;28.67
43217;BME280;60511;42.686;23.300;2023-05-11T06:08:56;94969.75;;;23.34;28.85
43217;BME280;60511;42.686;23.300;2023-05-11T06:10:57;94977.97;;;23.38;28.77
43217;BME280;60511;42.686;23.300;2023-05-11T06:12:57;94977.97;;;23.38;29.13
43217;BME280;60511;42.686;23.300;2023-05-11T06:14:58;94973.81;;;23.28;28.68
43217;BME280;60511;42.686;23.300;2023-05-11T06:16:58;94981.22;;;23.31;29.14
43217;BME280;60511;42.686;23.300;2023-05-11T06:18:58;94985.41;;;23.29;29.05
43217;BME280;60511;42.686;23.300;2023-05-11T06:20:59;94988.56;;;23.31;29.08
43217;BME280;60511;42.686;23.300;2023-05-11T06:22:59;94989.94;;;23.24;28.87
43217;BME280;60511;42.686;23.300;2023-05-11T06:25:00;94960.16;;;22.96;29.15
43217;BME280;60511;42.686;23.300;2023-05-11T06:27:00;94993.44;;;23.13;29.00
43217;BME280;60511;42.686;23.300;2023-05-11T06:29:00;94918.19;;;22.58;29.12
43217;BME280;60511;42.686;23.300;2023-05-11T06:31:01;94978.53;;;22.91;29.17
43217;BME280;60511;42.686;23.300;2023-05-11T06:33:02;94984.91;;;22.98;29.23
43217;BME280;60511;42.686;23.300;2023-05-11T06:35:03;94964.34;;;22.81;29.24
43217;BME280;60511;42.686;23.300;2023-05-11T06:37:04;94968.84;;;22.77;29.21
43217;BME280;60511;42.686;23.300;2023-05-11T06:39:04;94998.84;;;23.00;29.32
43217;BME280;60511;42.686;23.300;2023-05-11T06:41:06;94990.66;;;22.97;29.42
43217;BME280;60511;42.686;23.300;2023-05-11T06:43:06;94997.16;;;22.96;29.32
43217;BME280;60511;42.686;23.300;2023-05-11T06:45:07;94994.72;;;23.03;29.25
43217;BME280;60511;42.686;23.300;2023-05-11T06:47:08;94998.97;;;23.04;28.94
43217;BME280;60511;42.686;23.300;2023-05-11T06:49:09;94873.47;;;22.20;29.19
43217;BME280;60511;42.686;23.300;2023-05-11T06:51:10;94975.91;;;22.94;29.04
43217;BME280;60511;42.686;23.300;2023-05-11T06:53:10;95003.16;;;23.01;29.18
43217;BME280;60511;42.686;23.300;2023-05-11T06:55:11;95001.53;;;23.00;29.20
43217;BME280;60511;42.686;23.300;2023-05-11T06:57:13;94992.34;;;23.01;29.18
43217;BME280;60511;42.686;23.300;2023-05-11T06:59:13;94963.13;;;22.79;29.15
43217;BME280;60511;42.686;23.300;2023-05-11T07:01:13;94993.81;;;22.99;28.95
43217;BME280;60511;42.686;23.300;2023-05-11T07:03:14;94983.56;;;22.92;29.13
43217;BME280;60511;42.686;23.300;2023-05-11T07:05:14;95005.53;;;23.03;28.88
43217;BME280;60511;42.686;23.300;2023-05-11T07:07:15;94940.88;;;22.70;29.00
43217;BME280;60511;42.686;23.300;2023-05-11T07:09:16;94971.41;;;22.86;28.71
43217;BME280;60511;42.686;23.300;2023-05-11T07:11:16;94995.34;;;23.00;28.76
43217;BME280;60511;42.686;23.300;2023-05-11T07:13:18;94981.66;;;22.93;28.99
43217;BME280;60511;42.686;23.300;2023-05-11T07:15:18;94965.38;;;22.77;28.97
43217;BME280;60511;42.686;23.300;2023-05-11T07:17:18;95001.69;;;23.04;29.00
43217;BME280;60511;42.686;23.300;2023-05-11T07:19:19;94975.47;;;22.80;28.78
43217;BME280;60511;42.686;23.300;2023-05-11T07:21:19;94911.34;;;22.36;28.88
43217;BME280;60511;42.686;23.300;2023-05-11T07:23:22;94991.66;;;22.92;29.02
43217;BME280;60511;42.686;23.300;2023-05-11T07:25:23;95009.19;;;22.98;28.86
43217;BME280;60511;42.686;23.300;2023-05-11T07:27:24;94991.31;;;22.94;28.89
43217;BME280;60511;42.686;23.300;2023-05-11T07:29:26;94999.53;;;22.97;28.89
43217;BME280;60511;42.686;23.300;2023-05-11T07:31:26;94983.91;;;22.91;28.95
43217;BME280;60511;42.686;23.300;2023-05-11T07:33:29;95013.94;;;23.01;28.93
43217;BME280;60511;42.686;23.300;2023-05-11T07:35:29;94990.44;;;22.90;28.97
43217;BME280;60511;42.686;23.300;2023-05-11T07:37:30;94992.53;;;22.96;28.87
43217;BME280;60511;42.686;23.300;2023-05-11T07:39:30;95013.03;;;22.97;28.93
43217;BME280;60511;42.686;23.300;2023-05-11T07:41:31;95001.91;;;22.99;28.80
43217;BME280;60511;42.686;23.300;2023-05-11T07:43:31;94993.34;;;22.97;28.69
43217;BME280;60511;42.686;23.300;2023-05-11T07:45:31;95008.56;;;23.01;28.99
43217;BME280;60511;42.686;23.300;2023-05-11T07:47:32;94980.09;;;22.79;28.81
43217;BME280;60511;42.686;23.300;2023-05-11T07:49:32;94980.41;;;22.90;28.47
43217;BME280;60511;42.686;23.300;2023-05-11T07:51:33;94990.31;;;22.86;28.67
43217;BME280;60511;42.686;23.300;2023-05-11T07:53:34;94991.66;;;22.92;28.71
43217;BME280;60511;42.686;23.300;2023-05-11T07:55:35;94916.09;;;22.39;28.51
43217;BME280;60511;42.686;23.300;2023-05-11T07:57:35;95017.09;;;23.03;28.47
43217;BME280;60511;42.686;23.300;2023-05-11T07:59:36;94971.34;;;22.82;28.61
43217;BME280;60511;42.686;23.300;2023-05-11T08:01:36;95018.66;;;23.04;28.45
43217;BME280;60511;42.686;23.300;2023-05-11T08:03:37;94993.47;;;22.88;28.51
43217;BME280;60511;42.686;23.300;2023-05-11T08:05:37;94949.44;;;22.59;28.70
43217;BME280;60511;42.686;23.300;2023-05-11T08:07:38;94980.88;;;22.80;28.76
43217;BME280;60511;42.686;23.300;2023-05-11T08:09:38;94982.56;;;22.84;28.65
43217;BME280;60511;42.686;23.300;2023-05-11T08:11:39;95006.16;;;23.00;28.53
43217;BME280;60511;42.686;23.300;2023-05-11T08:13:39;95015.03;;;23.00;28.41
43217;BME280;60511;42.686;23.300;2023-05-11T08:15:40;94980.66;;;22.85;28.73
43217;BME280;60511;42.686;23.300;2023-05-11T08:17:40;94883.16;;;22.21;28.29
43217;BME280;60511;42.686;23.300;2023-05-11T08:19:42;95008.56;;;23.01;28.34
43217;BME280;60511;42.686;23.300;2023-05-11T08:21:42;95005.72;;;22.98;28.59
43217;BME280;60511;42.686;23.300;2023-05-11T08:23:44;95006.94;;;23.00;28.33
43217;BME280;60511;42.686;23.300;2023-05-11T08:25:52;94883.72;;;22.27;28.51
43217;BME280;60511;42.686;23.300;2023-05-11T08:27:52;94995.84;;;23.02;28.50
43217;BME280;60511;42.686;23.300;2023-05-11T08:29:53;95001.22;;;23.02;28.73
43217;BME280;60511;42.686;23.300;2023-05-11T08:31:54;94992.09;;;22.94;28.68
43217;BME280;60511;42.686;23.300;2023-05-11T08:33:54;95009.09;;;22.95;28.57
43217;BME280;60511;42.686;23.300;2023-05-11T08:35:55;94999.31;;;22.90;28.85
43217;BME280;60511;42.686;23.300;2023-05-11T08:37:55;94996.38;;;22.95;28.62
43217;BME280;60511;42.686;23.300;2023-05-11T08:39:55;94941.00;;;22.61;28.63
43217;BME280;60511;42.686;23.300;2023-05-11T08:41:57;94982.13;;;22.82;28.46
43217;BME280;60511;42.686;23.300;2023-05-11T08:43:59;95013.16;;;23.01;28.51
43217;BME280;60511;42.686;23.300;2023-05-11T08:46:03;95009.78;;;23.04;28.74
43217;BME280;60511;42.686;23.300;2023-05-11T08:48:04;95016.75;;;23.05;28.37
43217;BME280;60511;42.686;23.300;2023-05-11T08:50:05;94996.53;;;22.86;28.45
43217;BME280;60511;42.686;23.300;2023-05-11T08:52:06;95002.13;;;23.06;28.41
43217;BME280;60511;42.686;23.300;2023-05-11T08:54:06;95005.16;;;23.04;28.76
43217;BME280;60511;42.686;23.300;2023-05-11T08:56:07;95009.78;;;23.04;28.66
43217;BME280;60511;42.686;23.300;2023-05-11T08:58:08;94989.31;;;23.03;28.49
43217;BME280;60511;42.686;23.300;2023-05-11T09:00:10;94995.25;;;23.09;28.29
43217;BME280;60511;42.686;23.300;2023-05-11T09:02:16;95001.47;;;23.09;28.44
43217;BME280;60511;42.686;23.300;2023-05-11T09:04:19;94987.94;;;22.97;28.74
43217;BME280;60511;42.686;23.300;2023-05-11T09:06:22;95003.72;;;23.07;28.46
43217;BME280;60511;42.686;23.300;2023-05-11T09:08:23;94995.59;;;23.07;28.29
43217;BME280;60511;42.686;23.300;2023-05-11T09:10:27;94995.94;;;23.05;28.79
43217;BME280;60511;42.686;23.300;2023-05-11T09:12:27;94984.69;;;23.03;28.39
43217;BME280;60511;42.686;23.300;2023-05-11T09:14:28;94982.63;;;23.00;28.71
43217;BME280;60511;42.686;23.300;2023-05-11T09:16:29;94972.09;;;22.95;28.36
43217;BME280;60511;42.686;23.300;2023-05-11T09:18:29;94991.78;;;23.08;28.65
43217;BME280;60511;42.686;23.300;2023-05-11T09:20:31;94989.06;;;23.08;28.38
43217;BME280;60511;42.686;23.300;2023-05-11T09:22:32;94984.81;;;23.07;28.37
43217;BME280;60511;42.686;23.300;2023-05-11T09:24:33;94984.81;;;23.07;28.30
43217;BME280;60511;42.686;23.300;2023-05-11T09:26:35;94997.72;;;23.14;28.67
43217;BME280;60511;42.686;23.300;2023-05-11T09:28:35;94992.47;;;23.05;28.39
43217;BME280;60511;42.686;23.300;2023-05-11T09:30:35;94973.13;;;22.91;28.29
43217;BME280;60511;42.686;23.300;2023-05-11T09:32:58;94998.75;;;23.09;28.55
43217;BME280;60511;42.686;23.300;2023-05-11T09:35:17;94995.34;;;23.12;28.61
43217;BME280;60511;42.686;23.300;2023-05-11T09:37:18;94870.69;;;22.29;28.44
43217;BME280;60511;42.686;23.300;2023-05-11T09:39:33;94996.06;;;23.09;28.27
43217;BME280;60511;42.686;23.300;2023-05-11T09:41:34;94988.28;;;23.08;28.27
43217;BME280;60511;42.686;23.300;2023-05-11T09:43:34;94970.88;;;22.93;28.67
43217;BME280;60511;42.686;23.300;2023-05-11T09:45:45;94996.28;;;23.04;28.25
43217;BME280;60511;42.686;23.300;2023-05-11T09:47:45;94954.44;;;22.85;28.60
43217;BME280;60511;42.686;23.300;2023-05-11T09:49:46;94988.41;;;23.11;28.26
43217;BME280;60511;42.686;23.300;2023-05-11T09:51:47;94987.59;;;23.11;28.44
43217;BME280;60511;42.686;23.300;2023-05-11T09:54:00;94982.56;;;23.09;28.64
43217;BME280;60511;42.686;23.300;2023-05-11T09:56:01;94956.22;;;22.94;28.34
43217;BME280;60511;42.686;23.300;2023-05-11T09:58:02;94962.78;;;23.05;28.30
43217;BME280;60511;42.686;23.300;2023-05-11T10:00:12;94975.78;;;23.15;28.33
43217;BME280;60511;42.686;23.300;2023-05-11T10:02:17;94974.66;;;23.16;28.20
43217;BME280;60511;42.686;23.300;2023-05-11T10:04:17;94935.09;;;22.96;28.18
43217;BME280;60511;42.686;23.300;2023-05-11T10:06:45;94831.13;;;22.21;28.30
43217;BME280;60511;42.686;23.300;2023-05-11T10:08:46;94970.38;;;23.15;28.22
43217;BME280;60511;42.686;23.300;2023-05-11T10:10:47;94968.13;;;23.17;28.18
43217;BME280;60511;42.686;23.300;2023-05-11T10:12:47;94925.09;;;22.84;28.42
43217;BME280;60511;42.686;23.300;2023-05-11T10:14:50;94972.28;;;23.15;28.25
43217;BME280;60511;42.686;23.300;2023-05-11T10:16:51;94961.94;;;23.17;28.31
43217;BME280;60511;42.686;23.300;2023-05-11T10:18:53;94963.19;;;23.19;28.13
43217;BME280;60511;42.686;23.300;2023-05-11T10:20:54;94962.03;;;23.20;28.11
43217;BME280;60511;42.686;23.300;2023-05-11T10:22:55;94941.94;;;23.05;28.32
43217;BME280;60511;42.686;23.300;2023-05-11T10:24:56;94961.59;;;23.18;28.33
43217;BME280;60511;42.686;23.300;2023-05-11T10:26:57;94956.53;;;23.17;28.40
43217;BME280;60511;42.686;23.300;2023-05-11T10:29:00;94967.09;;;23.22;28.42
43217;BME280;60511;42.686;23.300;2023-05-11T10:31:02;94955.59;;;23.25;28.42
43217;BME280;60511;42.686;23.300;2023-05-11T10:33:05;94943.03;;;23.17;28.17
43217;BME280;60511;42.686;23.300;2023-05-11T10:35:06;94931.94;;;23.06;28.25
43217;BME280;60511;42.686;23.300;2023-05-11T10:37:07;94946.53;;;23.17;28.34
43217;BME280;60511;42.686;23.300;2023-05-11T10:39:07;94940.25;;;23.13;28.25
43217;BME280;60511;42.686;23.300;2023-05-11T10:43:37;94942.53;;;23.27;28.18
43217;BME280;60511;42.686;23.300;2023-05-11T11:01:53;94928.06;;;23.19;28.38
43217;BME280;60511;42.686;23.300;2023-05-11T11:03:59;94912.59;;;23.04;28.32